Murrieta, CA

7:05 AM PDT on April 27, 2015 (GMT -0700)
Stonehurst | | Change Station
CLOSE
Current Station
Personal Weather Station
Location: Wildomar, CA
Elevation: 1253 ft
Nearby Weather Stations
Active Advisory: Wind Advisory

Elev 1253 ft 33.59 °N, 117.25 °W | Updated 7 minutes ago

Clear
Clear
48.1 °F
Feels Like 48 °F
N
0.0
Wind Variable Wind from WSW
Gusts 3.0 mph

Today
High -- | Low -- °F
--% Chance of Precip.
Yesterday
High -- | Low -- °F
Precip. -- in
6:05 AM 7:29 PM
Waxing Gibbous, 65% visible
Pressure 29.96 in
Visibility 10.0 miles
Clouds Clear
Windchill 48 °F
Dew Point 46 °F
Humidity 91%
Rainfall 0.00 in
Snow Depth Not available.
UV 0 out of 12
Pollen 7.90 out of 12
Air Quality Not available.
Flu Activity Sporadic
METAR KF70 271355Z AUTO 00000KT 10SM CLR 09/07 A2996 RMK AO1

More Conditions Fewer Conditions

Pressure 29.96 in
Visibility 10.0 miles
Clouds Clear
Windchill 48 °F
Dew Point 46 °F
Humidity 91%
Rainfall 0.00 in
Snow Depth Not available.
UV 0 out of 12
Pollen 7.90 out of 12
Air Quality Not available.
Flu Activity Sporadic
METAR KF70 271355Z AUTO 00000KT 10SM CLR 09/07 A2996 RMK AO1

More Conditions Fewer Conditions

10-Day Weather Forecast

Almanac

Astronomy

Apr. 27, 2015 Rise Set
Actual Time
Civil Twilight
Nautical Twilight
Astronomical Twilight
Moon
Length of Visible Light
Length of Day
Tomorrow will be .
, % of the Moon is Illuminated

Today's Extremes

State Highs State Lows

Community

WunderPhotos

Upload Photos

1,817,309 photos uploaded!

WunderBlogs® & News

Nearby

Air Quality

  Air Quality AQ Index Pollutant
Not available.

Snow Depth

Station Depth Elevation

Earthquake Activity

City Distance Mag. Time & Date
Minimum magnitude displayed is 2.5.

Coastal Water Temperatures

Place Temperature

Stations

Nearby Weather Stations

Station Location Temp. Windchill Dew Point Humidity Wind Precip. Elev Updated Type
                   
Wind Advisory
Statement as of 3:01 AM PDT on April 27, 2015

... Wind Advisory remains in effect until noon PDT today...

* winds... areas of northeast winds 25 to 35 mph with gusts to 55
mph. Isolated gusts to 65 mph along the coastal slopes of the
Santa Ana Mountains.

* Timing... winds becoming stronger and more widespread past
sunrise... peaking mid morning... then diminishing around noon.

* Location... strongest winds below the Cajon Pass and along the
coastal foothills of the Santa Ana Mountains.

* Impacts... winds this strong can make driving difficult...
especially for high profile vehicles. Isolated wind damage.

Precautionary/preparedness actions...

A Wind Advisory means that winds of 35 mph are expected. Winds
this strong can make driving difficult... especially for high
profile vehicles. Use extra caution.